sensor_id;sensor_type;location;lat;lon;timestamp;P1;durP1;ratioP1;P2;durP2;ratioP2
69417;SDS011;56610;48.872;2.400;2023-05-19T00:01:20;7.90;;;4.50;;
69417;SDS011;56610;48.872;2.400;2023-05-19T00:03:50;7.65;;;4.65;;
69417;SDS011;56610;48.872;2.400;2023-05-19T00:06:21;6.70;;;4.78;;
69417;SDS011;56610;48.872;2.400;2023-05-19T00:08:49;8.80;;;4.82;;
69417;SDS011;56610;48.872;2.400;2023-05-19T00:11:21;9.18;;;5.43;;
69417;SDS011;56610;48.872;2.400;2023-05-19T00:13:47;7.70;;;5.05;;
69417;SDS011;56610;48.872;2.400;2023-05-19T00:16:15;8.43;;;5.50;;
69417;SDS011;56610;48.872;2.400;2023-05-19T00:18:41;9.50;;;5.78;;
69417;SDS011;56610;48.872;2.400;2023-05-19T00:21:07;10.38;;;5.00;;
69417;SDS011;56610;48.872;2.400;2023-05-19T00:23:33;8.93;;;5.38;;
69417;SDS011;56610;48.872;2.400;2023-05-19T00:25:58;10.13;;;5.60;;
69417;SDS011;56610;48.872;2.400;2023-05-19T00:28:24;11.52;;;5.82;;
69417;SDS011;56610;48.872;2.400;2023-05-19T00:30:49;9.43;;;5.55;;
69417;SDS011;56610;48.872;2.400;2023-05-19T00:33:15;9.18;;;6.13;;
69417;SDS011;56610;48.872;2.400;2023-05-19T00:35:41;9.05;;;6.03;;
69417;SDS011;56610;48.872;2.400;2023-05-19T00:38:06;10.10;;;6.35;;
69417;SDS011;56610;48.872;2.400;2023-05-19T00:40:33;12.30;;;6.78;;
69417;SDS011;56610;48.872;2.400;2023-05-19T00:42:59;12.45;;;7.00;;
69417;SDS011;56610;48.872;2.400;2023-05-19T00:45:25;8.57;;;5.88;;
69417;SDS011;56610;48.872;2.400;2023-05-19T00:47:51;9.43;;;5.68;;
69417;SDS011;56610;48.872;2.400;2023-05-19T00:50:17;10.23;;;6.13;;
69417;SDS011;56610;48.872;2.400;2023-05-19T00:52:42;11.13;;;6.18;;
69417;SDS011;56610;48.872;2.400;2023-05-19T00:55:08;11.05;;;6.00;;
69417;SDS011;56610;48.872;2.400;2023-05-19T00:57:34;9.40;;;6.53;;
69417;SDS011;56610;48.872;2.400;2023-05-19T01:00:00;13.13;;;6.82;;
69417;SDS011;56610;48.872;2.400;2023-05-19T01:02:28;9.40;;;6.20;;
69417;SDS011;56610;48.872;2.400;2023-05-19T01:04:55;11.10;;;5.80;;
69417;SDS011;56610;48.872;2.400;2023-05-19T01:07:21;12.93;;;6.60;;
69417;SDS011;56610;48.872;2.400;2023-05-19T01:09:47;11.68;;;6.65;;
69417;SDS011;56610;48.872;2.400;2023-05-19T01:12:14;11.73;;;7.07;;
69417;SDS011;56610;48.872;2.400;2023-05-19T01:14:40;11.50;;;6.43;;
69417;SDS011;56610;48.872;2.400;2023-05-19T01:17:20;11.45;;;6.75;;
69417;SDS011;56610;48.872;2.400;2023-05-19T01:30:54;11.23;;;7.13;;
69417;SDS011;56610;48.872;2.400;2023-05-19T01:33:23;11.07;;;6.53;;
69417;SDS011;56610;48.872;2.400;2023-05-19T01:35:49;11.55;;;7.15;;
69417;SDS011;56610;48.872;2.400;2023-05-19T01:38:16;11.45;;;6.93;;
69417;SDS011;56610;48.872;2.400;2023-05-19T01:40:43;10.80;;;7.28;;
69417;SDS011;56610;48.872;2.400;2023-05-19T01:43:13;9.88;;;7.03;;
69417;SDS011;56610;48.872;2.400;2023-05-19T01:45:43;10.68;;;6.60;;
69417;SDS011;56610;48.872;2.400;2023-05-19T01:48:09;11.40;;;7.50;;
69417;SDS011;56610;48.872;2.400;2023-05-19T01:50:36;10.40;;;7.00;;
69417;SDS011;56610;48.872;2.400;2023-05-19T01:53:02;11.15;;;7.22;;
69417;SDS011;56610;48.872;2.400;2023-05-19T01:55:28;13.32;;;7.47;;
69417;SDS011;56610;48.872;2.400;2023-05-19T01:58:14;11.38;;;6.75;;
69417;SDS011;56610;48.872;2.400;2023-05-19T02:11:46;10.50;;;7.68;;
69417;SDS011;56610;48.872;2.400;2023-05-19T02:14:23;11.65;;;7.40;;
69417;SDS011;56610;48.872;2.400;2023-05-19T02:16:54;10.85;;;7.28;;
69417;SDS011;56610;48.872;2.400;2023-05-19T02:19:31;11.38;;;7.65;;
69417;SDS011;56610;48.872;2.400;2023-05-19T02:21:59;11.15;;;7.00;;
69417;SDS011;56610;48.872;2.400;2023-05-19T02:24:24;11.10;;;7.35;;
69417;SDS011;56610;48.872;2.400;2023-05-19T02:26:51;10.13;;;7.80;;
69417;SDS011;56610;48.872;2.400;2023-05-19T02:29:17;12.52;;;7.72;;
69417;SDS011;56610;48.872;2.400;2023-05-19T02:31:43;11.77;;;8.27;;
69417;SDS011;56610;48.872;2.400;2023-05-19T02:34:09;12.45;;;7.53;;
69417;SDS011;56610;48.872;2.400;2023-05-19T02:36:35;10.85;;;7.65;;
69417;SDS011;56610;48.872;2.400;2023-05-19T02:39:01;14.15;;;8.40;;
69417;SDS011;56610;48.872;2.400;2023-05-19T02:41:27;12.63;;;8.40;;
69417;SDS011;56610;48.872;2.400;2023-05-19T02:43:53;12.77;;;8.88;;
69417;SDS011;56610;48.872;2.400;2023-05-19T02:46:18;12.88;;;8.55;;
69417;SDS011;56610;48.872;2.400;2023-05-19T02:48:44;12.02;;;8.10;;
69417;SDS011;56610;48.872;2.400;2023-05-19T02:51:10;14.05;;;8.63;;
69417;SDS011;56610;48.872;2.400;2023-05-19T02:53:35;10.98;;;8.07;;
69417;SDS011;56610;48.872;2.400;2023-05-19T02:56:01;12.57;;;8.05;;
69417;SDS011;56610;48.872;2.400;2023-05-19T02:58:27;13.40;;;8.43;;
69417;SDS011;56610;48.872;2.400;2023-05-19T03:00:52;11.23;;;7.97;;
69417;SDS011;56610;48.872;2.400;2023-05-19T03:03:18;14.68;;;8.80;;
69417;SDS011;56610;48.872;2.400;2023-05-19T03:05:44;12.27;;;8.30;;
69417;SDS011;56610;48.872;2.400;2023-05-19T03:08:10;14.18;;;8.82;;
69417;SDS011;56610;48.872;2.400;2023-05-19T03:10:35;11.63;;;8.93;;
69417;SDS011;56610;48.872;2.400;2023-05-19T03:13:01;14.43;;;8.65;;
69417;SDS011;56610;48.872;2.400;2023-05-19T03:15:26;14.75;;;9.10;;
69417;SDS011;56610;48.872;2.400;2023-05-19T03:17:52;11.95;;;8.70;;
69417;SDS011;56610;48.872;2.400;2023-05-19T03:20:17;15.02;;;9.32;;
69417;SDS011;56610;48.872;2.400;2023-05-19T03:22:43;12.48;;;8.68;;
69417;SDS011;56610;48.872;2.400;2023-05-19T03:25:09;17.63;;;8.63;;
69417;SDS011;56610;48.872;2.400;2023-05-19T03:27:34;12.93;;;9.57;;
69417;SDS011;56610;48.872;2.400;2023-05-19T03:30:00;12.07;;;9.27;;
69417;SDS011;56610;48.872;2.400;2023-05-19T03:32:25;14.15;;;9.02;;
69417;SDS011;56610;48.872;2.400;2023-05-19T03:34:51;13.82;;;9.88;;
69417;SDS011;56610;48.872;2.400;2023-05-19T03:37:16;12.23;;;8.90;;
69417;SDS011;56610;48.872;2.400;2023-05-19T03:39:42;13.95;;;9.38;;
69417;SDS011;56610;48.872;2.400;2023-05-19T03:42:08;14.88;;;9.40;;
69417;SDS011;56610;48.872;2.400;2023-05-19T03:44:33;16.40;;;9.27;;
69417;SDS011;56610;48.872;2.400;2023-05-19T03:46:59;12.85;;;9.65;;
69417;SDS011;56610;48.872;2.400;2023-05-19T03:49:24;13.27;;;8.73;;
69417;SDS011;56610;48.872;2.400;2023-05-19T03:51:50;14.75;;;9.45;;
69417;SDS011;56610;48.872;2.400;2023-05-19T03:54:15;14.80;;;9.77;;
69417;SDS011;56610;48.872;2.400;2023-05-19T03:56:41;14.35;;;9.48;;
69417;SDS011;56610;48.872;2.400;2023-05-19T03:59:07;11.70;;;9.20;;
69417;SDS011;56610;48.872;2.400;2023-05-19T04:01:36;13.27;;;8.50;;
69417;SDS011;56610;48.872;2.400;2023-05-19T04:04:01;13.40;;;9.27;;
69417;SDS011;56610;48.872;2.400;2023-05-19T04:06:27;12.50;;;9.13;;
69417;SDS011;56610;48.872;2.400;2023-05-19T04:08:52;11.23;;;9.35;;
69417;SDS011;56610;48.872;2.400;2023-05-19T04:11:18;11.90;;;9.10;;
69417;SDS011;56610;48.872;2.400;2023-05-19T04:13:44;13.30;;;9.60;;
69417;SDS011;56610;48.872;2.400;2023-05-19T04:16:10;12.88;;;9.63;;
69417;SDS011;56610;48.872;2.400;2023-05-19T04:18:35;14.18;;;9.40;;
69417;SDS011;56610;48.872;2.400;2023-05-19T04:21:01;14.50;;;9.75;;
69417;SDS011;56610;48.872;2.400;2023-05-19T04:23:26;12.52;;;9.30;;
69417;SDS011;56610;48.872;2.400;2023-05-19T04:25:52;13.93;;;10.23;;
69417;SDS011;56610;48.872;2.400;2023-05-19T04:28:18;12.48;;;9.40;;
69417;SDS011;56610;48.872;2.400;2023-05-19T04:30:44;13.63;;;9.52;;
69417;SDS011;56610;48.872;2.400;2023-05-19T04:33:10;14.70;;;10.15;;
69417;SDS011;56610;48.872;2.400;2023-05-19T04:35:37;16.20;;;9.60;;
69417;SDS011;56610;48.872;2.400;2023-05-19T04:38:03;15.45;;;9.50;;
69417;SDS011;56610;48.872;2.400;2023-05-19T04:40:29;14.05;;;9.57;;
69417;SDS011;56610;48.872;2.400;2023-05-19T04:42:55;10.50;;;9.07;;
69417;SDS011;56610;48.872;2.400;2023-05-19T04:45:22;11.40;;;9.45;;
69417;SDS011;56610;48.872;2.400;2023-05-19T04:47:49;13.23;;;10.25;;
69417;SDS011;56610;48.872;2.400;2023-05-19T04:50:16;15.30;;;9.77;;
69417;SDS011;56610;48.872;2.400;2023-05-19T04:52:42;13.40;;;10.13;;
69417;SDS011;56610;48.872;2.400;2023-05-19T04:55:09;13.40;;;10.40;;
69417;SDS011;56610;48.872;2.400;2023-05-19T04:57:35;15.98;;;10.18;;
69417;SDS011;56610;48.872;2.400;2023-05-19T05:00:01;13.60;;;9.85;;
69417;SDS011;56610;48.872;2.400;2023-05-19T05:02:31;11.38;;;9.75;;
69417;SDS011;56610;48.872;2.400;2023-05-19T05:04:57;13.40;;;9.60;;
69417;SDS011;56610;48.872;2.400;2023-05-19T05:07:23;15.95;;;10.30;;
69417;SDS011;56610;48.872;2.400;2023-05-19T05:09:48;14.50;;;10.25;;
69417;SDS011;56610;48.872;2.400;2023-05-19T05:12:14;15.60;;;9.48;;
69417;SDS011;56610;48.872;2.400;2023-05-19T05:14:41;11.20;;;9.52;;
69417;SDS011;56610;48.872;2.400;2023-05-19T05:17:07;15.90;;;9.77;;
69417;SDS011;56610;48.872;2.400;2023-05-19T05:19:33;15.43;;;9.32;;
69417;SDS011;56610;48.872;2.400;2023-05-19T05:22:00;14.43;;;9.40;;
69417;SDS011;56610;48.872;2.400;2023-05-19T05:24:26;10.85;;;9.13;;
69417;SDS011;56610;48.872;2.400;2023-05-19T05:26:52;12.52;;;9.20;;
69417;SDS011;56610;48.872;2.400;2023-05-19T05:29:18;15.73;;;9.30;;
69417;SDS011;56610;48.872;2.400;2023-05-19T05:31:44;12.13;;;9.38;;
69417;SDS011;56610;48.872;2.400;2023-05-19T05:34:10;13.82;;;9.65;;
69417;SDS011;56610;48.872;2.400;2023-05-19T05:36:35;11.80;;;9.07;;
69417;SDS011;56610;48.872;2.400;2023-05-19T05:39:01;12.20;;;9.27;;
69417;SDS011;56610;48.872;2.400;2023-05-19T05:41:28;11.10;;;8.80;;
69417;SDS011;56610;48.872;2.400;2023-05-19T05:43:59;12.02;;;8.90;;
69417;SDS011;56610;48.872;2.400;2023-05-19T05:46:25;12.18;;;9.68;;
69417;SDS011;56610;48.872;2.400;2023-05-19T05:48:50;14.90;;;9.38;;
69417;SDS011;56610;48.872;2.400;2023-05-19T05:51:16;14.02;;;9.20;;
69417;SDS011;56610;48.872;2.400;2023-05-19T05:53:45;14.38;;;9.20;;
69417;SDS011;56610;48.872;2.400;2023-05-19T05:56:16;11.40;;;8.50;;
69417;SDS011;56610;48.872;2.400;2023-05-19T05:58:41;13.32;;;9.20;;
69417;SDS011;56610;48.872;2.400;2023-05-19T06:01:07;10.35;;;9.23;;
69417;SDS011;56610;48.872;2.400;2023-05-19T06:03:39;12.63;;;8.88;;
69417;SDS011;56610;48.872;2.400;2023-05-19T06:06:06;11.73;;;8.98;;
69417;SDS011;56610;48.872;2.400;2023-05-19T06:08:32;12.43;;;8.88;;
69417;SDS011;56610;48.872;2.400;2023-05-19T06:10:58;11.00;;;8.88;;
69417;SDS011;56610;48.872;2.400;2023-05-19T06:13:23;11.95;;;9.85;;
69417;SDS011;56610;48.872;2.400;2023-05-19T06:15:50;11.90;;;9.30;;
69417;SDS011;56610;48.872;2.400;2023-05-19T06:18:16;11.88;;;9.18;;
69417;SDS011;56610;48.872;2.400;2023-05-19T06:20:42;14.60;;;9.13;;
69417;SDS011;56610;48.872;2.400;2023-05-19T06:23:07;15.30;;;9.40;;
69417;SDS011;56610;48.872;2.400;2023-05-19T06:25:33;12.93;;;9.00;;
69417;SDS011;56610;48.872;2.400;2023-05-19T06:27:59;12.27;;;8.93;;
69417;SDS011;56610;48.872;2.400;2023-05-19T06:30:24;13.52;;;9.05;;
69417;SDS011;56610;48.872;2.400;2023-05-19T06:32:50;14.73;;;9.15;;
69417;SDS011;56610;48.872;2.400;2023-05-19T06:35:15;12.90;;;9.20;;
69417;SDS011;56610;48.872;2.400;2023-05-19T06:37:41;11.35;;;8.43;;
69417;SDS011;56610;48.872;2.400;2023-05-19T06:40:07;11.38;;;9.20;;
69417;SDS011;56610;48.872;2.400;2023-05-19T06:42:33;11.00;;;8.25;;
69417;SDS011;56610;48.872;2.400;2023-05-19T06:44:58;10.35;;;8.60;;
69417;SDS011;56610;48.872;2.400;2023-05-19T06:47:24;11.23;;;8.40;;
69417;SDS011;56610;48.872;2.400;2023-05-19T06:49:49;11.10;;;8.60;;
69417;SDS011;56610;48.872;2.400;2023-05-19T06:52:19;12.98;;;8.25;;
69417;SDS011;56610;48.872;2.400;2023-05-19T06:54:45;13.52;;;8.32;;
69417;SDS011;56610;48.872;2.400;2023-05-19T06:57:11;13.30;;;8.60;;
69417;SDS011;56610;48.872;2.400;2023-05-19T06:59:36;10.77;;;8.40;;
69417;SDS011;56610;48.872;2.400;2023-05-19T07:02:04;11.20;;;8.27;;
69417;SDS011;56610;48.872;2.400;2023-05-19T07:04:31;9.98;;;7.88;;
69417;SDS011;56610;48.872;2.400;2023-05-19T07:06:56;11.68;;;8.52;;
69417;SDS011;56610;48.872;2.400;2023-05-19T07:09:22;11.70;;;8.30;;
69417;SDS011;56610;48.872;2.400;2023-05-19T07:11:48;10.45;;;8.13;;
69417;SDS011;56610;48.872;2.400;2023-05-19T07:14:13;10.48;;;7.80;;
69417;SDS011;56610;48.872;2.400;2023-05-19T07:16:39;9.43;;;7.85;;
69417;SDS011;56610;48.872;2.400;2023-05-19T07:19:05;9.68;;;8.13;;
69417;SDS011;56610;48.872;2.400;2023-05-19T07:21:30;10.98;;;8.60;;
69417;SDS011;56610;48.872;2.400;2023-05-19T07:23:56;13.27;;;8.70;;
69417;SDS011;56610;48.872;2.400;2023-05-19T07:26:21;9.18;;;7.57;;
69417;SDS011;56610;48.872;2.400;2023-05-19T07:28:47;12.00;;;8.10;;
69417;SDS011;56610;48.872;2.400;2023-05-19T07:31:13;11.45;;;7.82;;
69417;SDS011;56610;48.872;2.400;2023-05-19T07:33:39;9.93;;;8.23;;
69417;SDS011;56610;48.872;2.400;2023-05-19T07:36:04;12.25;;;7.70;;
69417;SDS011;56610;48.872;2.400;2023-05-19T07:38:30;13.02;;;8.40;;
69417;SDS011;56610;48.872;2.400;2023-05-19T07:40:58;12.38;;;7.95;;
69417;SDS011;56610;48.872;2.400;2023-05-19T07:43:25;11.68;;;7.68;;
69417;SDS011;56610;48.872;2.400;2023-05-19T07:45:50;13.98;;;8.40;;
69417;SDS011;56610;48.872;2.400;2023-05-19T07:48:17;12.13;;;7.70;;
69417;SDS011;56610;48.872;2.400;2023-05-19T07:50:46;10.80;;;7.55;;
69417;SDS011;56610;48.872;2.400;2023-05-19T07:53:12;11.32;;;6.80;;
69417;SDS011;56610;48.872;2.400;2023-05-19T07:55:38;9.20;;;6.95;;
69417;SDS011;56610;48.872;2.400;2023-05-19T07:58:03;12.30;;;8.10;;
69417;SDS011;56610;48.872;2.400;2023-05-19T08:00:29;9.60;;;6.63;;
69417;SDS011;56610;48.872;2.400;2023-05-19T08:02:55;9.50;;;6.72;;
69417;SDS011;56610;48.872;2.400;2023-05-19T08:05:21;8.18;;;7.13;;
69417;SDS011;56610;48.872;2.400;2023-05-19T08:07:47;11.68;;;7.00;;
69417;SDS011;56610;48.872;2.400;2023-05-19T08:10:12;10.65;;;6.47;;
69417;SDS011;56610;48.872;2.400;2023-05-19T08:12:38;10.35;;;7.18;;
69417;SDS011;56610;48.872;2.400;2023-05-19T08:15:04;9.75;;;6.57;;
69417;SDS011;56610;48.872;2.400;2023-05-19T08:17:30;9.82;;;7.13;;
69417;SDS011;56610;48.872;2.400;2023-05-19T08:19:55;9.73;;;6.80;;
69417;SDS011;56610;48.872;2.400;2023-05-19T08:22:21;12.65;;;6.70;;
69417;SDS011;56610;48.872;2.400;2023-05-19T08:24:47;9.80;;;6.72;;
69417;SDS011;56610;48.872;2.400;2023-05-19T08:27:14;11.02;;;6.55;;
69417;SDS011;56610;48.872;2.400;2023-05-19T08:29:40;12.15;;;7.32;;
69417;SDS011;56610;48.872;2.400;2023-05-19T08:32:06;7.95;;;5.75;;
69417;SDS011;56610;48.872;2.400;2023-05-19T08:34:32;7.78;;;5.78;;
69417;SDS011;56610;48.872;2.400;2023-05-19T08:36:58;10.00;;;6.43;;
69417;SDS011;56610;48.872;2.400;2023-05-19T08:39:23;10.30;;;7.03;;
69417;SDS011;56610;48.872;2.400;2023-05-19T08:41:52;11.63;;;7.38;;
69417;SDS011;56610;48.872;2.400;2023-05-19T08:44:18;9.88;;;6.72;;
69417;SDS011;56610;48.872;2.400;2023-05-19T08:46:44;10.57;;;6.20;;
69417;SDS011;56610;48.872;2.400;2023-05-19T08:49:13;8.90;;;6.20;;
69417;SDS011;56610;48.872;2.400;2023-05-19T08:51:46;11.57;;;7.53;;
69417;SDS011;56610;48.872;2.400;2023-05-19T08:54:24;10.82;;;6.85;;
69417;SDS011;56610;48.872;2.400;2023-05-19T08:56:57;12.18;;;7.63;;
69417;SDS011;56610;48.872;2.400;2023-05-19T08:59:23;10.63;;;6.78;;
69417;SDS011;56610;48.872;2.400;2023-05-19T09:01:50;8.00;;;5.72;;
69417;SDS011;56610;48.872;2.400;2023-05-19T09:04:18;9.45;;;6.03;;
69417;SDS011;56610;48.872;2.400;2023-05-19T09:06:44;10.90;;;6.25;;
69417;SDS011;56610;48.872;2.400;2023-05-19T09:09:10;9.02;;;6.47;;
69417;SDS011;56610;48.872;2.400;2023-05-19T09:11:36;12.45;;;6.50;;
69417;SDS011;56610;48.872;2.400;2023-05-19T09:14:05;8.05;;;5.50;;
69417;SDS011;56610;48.872;2.400;2023-05-19T09:16:31;10.05;;;6.45;;
69417;SDS011;56610;48.872;2.400;2023-05-19T09:18:57;9.65;;;6.63;;
69417;SDS011;56610;48.872;2.400;2023-05-19T09:21:28;10.20;;;5.82;;
69417;SDS011;56610;48.872;2.400;2023-05-19T09:24:03;9.07;;;5.80;;
69417;SDS011;56610;48.872;2.400;2023-05-19T09:26:36;7.55;;;4.60;;
69417;SDS011;56610;48.872;2.400;2023-05-19T09:29:12;10.45;;;5.53;;
69417;SDS011;56610;48.872;2.400;2023-05-19T09:31:45;10.90;;;4.97;;
69417;SDS011;56610;48.872;2.400;2023-05-19T09:34:13;10.00;;;4.95;;
69417;SDS011;56610;48.872;2.400;2023-05-19T09:36:39;7.47;;;4.47;;
69417;SDS011;56610;48.872;2.400;2023-05-19T09:39:13;7.80;;;4.18;;
69417;SDS011;56610;48.872;2.400;2023-05-19T09:41:42;8.82;;;4.20;;
69417;SDS011;56610;48.872;2.400;2023-05-19T09:46:54;5.07;;;4.00;;
69417;SDS011;56610;48.872;2.400;2023-05-19T09:49:24;5.85;;;3.75;;
69417;SDS011;56610;48.872;2.400;2023-05-19T09:51:56;6.35;;;3.70;;
69417;SDS011;56610;48.872;2.400;2023-05-19T09:54:23;8.25;;;3.90;;
69417;SDS011;56610;48.872;2.400;2023-05-19T09:56:50;8.77;;;4.13;;
69417;SDS011;56610;48.872;2.400;2023-05-19T09:59:23;6.82;;;3.13;;
69417;SDS011;56610;48.872;2.400;2023-05-19T10:01:53;6.83;;;2.90;;
69417;SDS011;56610;48.872;2.400;2023-05-19T10:04:21;5.53;;;3.35;;
69417;SDS011;56610;48.872;2.400;2023-05-19T10:06:51;7.35;;;3.50;;
69417;SDS011;56610;48.872;2.400;2023-05-19T10:09:20;5.75;;;3.20;;
69417;SDS011;56610;48.872;2.400;2023-05-19T10:11:48;7.65;;;3.35;;
69417;SDS011;56610;48.872;2.400;2023-05-19T10:14:29;6.03;;;3.28;;
69417;SDS011;56610;48.872;2.400;2023-05-19T10:16:56;6.10;;;2.92;;
69417;SDS011;56610;48.872;2.400;2023-05-19T10:19:26;7.50;;;3.83;;
69417;SDS011;56610;48.872;2.400;2023-05-19T10:21:52;6.43;;;3.47;;
69417;SDS011;56610;48.872;2.400;2023-05-19T10:24:19;7.22;;;3.38;;
69417;SDS011;56610;48.872;2.400;2023-05-19T10:26:46;5.55;;;3.10;;
69417;SDS011;56610;48.872;2.400;2023-05-19T10:29:21;6.20;;;3.05;;
69417;SDS011;56610;48.872;2.400;2023-05-19T10:31:51;6.95;;;3.25;;
69417;SDS011;56610;48.872;2.400;2023-05-19T10:34:22;6.63;;;3.05;;
69417;SDS011;56610;48.872;2.400;2023-05-19T10:39:40;7.45;;;3.20;;
69417;SDS011;56610;48.872;2.400;2023-05-19T10:47:54;4.90;;;2.83;;
69417;SDS011;56610;48.872;2.400;2023-05-19T10:50:42;5.05;;;3.50;;
69417;SDS011;56610;48.872;2.400;2023-05-19T10:53:15;5.15;;;2.90;;
69417;SDS011;56610;48.872;2.400;2023-05-19T10:58:38;6.65;;;2.60;;
69417;SDS011;56610;48.872;2.400;2023-05-19T11:01:13;4.05;;;2.55;;
69417;SDS011;56610;48.872;2.400;2023-05-19T11:03:47;4.82;;;2.72;;
69417;SDS011;56610;48.872;2.400;2023-05-19T11:06:31;4.13;;;2.67;;
69417;SDS011;56610;48.872;2.400;2023-05-19T11:09:01;10.13;;;3.03;;
69417;SDS011;56610;48.872;2.400;2023-05-19T11:11:47;8.05;;;3.08;;
69417;SDS011;56610;48.872;2.400;2023-05-19T11:14:34;4.53;;;2.72;;
69417;SDS011;56610;48.872;2.400;2023-05-19T11:17:00;7.10;;;3.40;;
69417;SDS011;56610;48.872;2.400;2023-05-19T11:19:30;6.30;;;3.20;;
69417;SDS011;56610;48.872;2.400;2023-05-19T11:22:07;4.88;;;2.70;;
69417;SDS011;56610;48.872;2.400;2023-05-19T11:24:43;8.80;;;3.60;;
69417;SDS011;56610;48.872;2.400;2023-05-19T11:27:18;6.47;;;3.25;;
69417;SDS011;56610;48.872;2.400;2023-05-19T11:29:55;6.82;;;3.20;;
69417;SDS011;56610;48.872;2.400;2023-05-19T11:32:29;7.97;;;3.00;;
69417;SDS011;56610;48.872;2.400;2023-05-19T11:34:57;5.28;;;2.90;;
69417;SDS011;56610;48.872;2.400;2023-05-19T11:37:24;7.47;;;3.47;;
69417;SDS011;56610;48.872;2.400;2023-05-19T11:39:50;4.45;;;2.85;;
69417;SDS011;56610;48.872;2.400;2023-05-19T11:42:16;6.95;;;2.88;;
69417;SDS011;56610;48.872;2.400;2023-05-19T11:44:45;6.28;;;3.13;;
69417;SDS011;56610;48.872;2.400;2023-05-19T11:47:14;5.68;;;2.85;;
69417;SDS011;56610;48.872;2.400;2023-05-19T11:49:44;8.18;;;3.40;;
69417;SDS011;56610;48.872;2.400;2023-05-19T11:52:12;8.02;;;5.25;;
69417;SDS011;56610;48.872;2.400;2023-05-19T11:54:38;5.53;;;2.95;;
69417;SDS011;56610;48.872;2.400;2023-05-19T11:57:06;5.32;;;3.13;;
69417;SDS011;56610;48.872;2.400;2023-05-19T11:59:34;6.90;;;3.00;;
69417;SDS011;56610;48.872;2.400;2023-05-19T12:02:20;7.05;;;2.75;;
69417;SDS011;56610;48.872;2.400;2023-05-19T12:04:49;6.07;;;2.75;;
69417;SDS011;56610;48.872;2.400;2023-05-19T12:07:16;5.20;;;2.35;;
69417;SDS011;56610;48.872;2.400;2023-05-19T12:09:47;4.45;;;2.25;;
69417;SDS011;56610;48.872;2.400;2023-05-19T12:12:20;6.78;;;3.05;;
69417;SDS011;56610;48.872;2.400;2023-05-19T12:14:49;6.43;;;2.70;;
69417;SDS011;56610;48.872;2.400;2023-05-19T12:17:16;5.20;;;2.95;;
69417;SDS011;56610;48.872;2.400;2023-05-19T12:22:09;7.35;;;2.80;;
69417;SDS011;56610;48.872;2.400;2023-05-19T12:24:36;7.47;;;2.92;;
69417;SDS011;56610;48.872;2.400;2023-05-19T12:29:37;7.32;;;2.88;;
69417;SDS011;56610;48.872;2.400;2023-05-19T12:32:03;7.28;;;2.95;;
69417;SDS011;56610;48.872;2.400;2023-05-19T12:39:45;5.40;;;2.47;;
69417;SDS011;56610;48.872;2.400;2023-05-19T12:42:12;4.35;;;2.35;;
69417;SDS011;56610;48.872;2.400;2023-05-19T12:44:46;6.10;;;2.50;;
69417;SDS011;56610;48.872;2.400;2023-05-19T12:47:17;5.35;;;2.53;;
69417;SDS011;56610;48.872;2.400;2023-05-19T12:49:59;5.72;;;2.90;;
69417;SDS011;56610;48.872;2.400;2023-05-19T12:52:26;7.40;;;2.72;;
69417;SDS011;56610;48.872;2.400;2023-05-19T12:54:57;5.68;;;2.75;;
69417;SDS011;56610;48.872;2.400;2023-05-19T12:57:27;5.13;;;2.60;;
69417;SDS011;56610;48.872;2.400;2023-05-19T13:05:25;5.22;;;2.67;;
69417;SDS011;56610;48.872;2.400;2023-05-19T13:07:59;5.15;;;2.40;;
69417;SDS011;56610;48.872;2.400;2023-05-19T13:10:26;3.88;;;2.17;;
69417;SDS011;56610;48.872;2.400;2023-05-19T13:12:55;4.80;;;2.90;;
69417;SDS011;56610;48.872;2.400;2023-05-19T13:15:22;4.38;;;2.33;;
69417;SDS011;56610;48.872;2.400;2023-05-19T13:17:50;5.97;;;2.45;;
69417;SDS011;56610;48.872;2.400;2023-05-19T13:20:15;5.45;;;2.50;;
69417;SDS011;56610;48.872;2.400;2023-05-19T13:22:41;4.88;;;2.40;;
69417;SDS011;56610;48.872;2.400;2023-05-19T13:25:07;5.43;;;2.30;;
69417;SDS011;56610;48.872;2.400;2023-05-19T13:27:33;5.80;;;2.22;;
69417;SDS011;56610;48.872;2.400;2023-05-19T13:29:59;4.03;;;1.98;;
69417;SDS011;56610;48.872;2.400;2023-05-19T13:32:25;6.15;;;2.70;;
69417;SDS011;56610;48.872;2.400;2023-05-19T13:34:50;5.97;;;2.28;;
69417;SDS011;56610;48.872;2.400;2023-05-19T13:37:16;3.70;;;2.22;;
69417;SDS011;56610;48.872;2.400;2023-05-19T13:39:41;4.10;;;2.00;;
69417;SDS011;56610;48.872;2.400;2023-05-19T13:42:07;4.07;;;2.35;;
69417;SDS011;56610;48.872;2.400;2023-05-19T13:44:33;3.58;;;2.40;;
69417;SDS011;56610;48.872;2.400;2023-05-19T13:46:58;5.60;;;2.22;;
69417;SDS011;56610;48.872;2.400;2023-05-19T13:49:24;4.65;;;2.30;;
69417;SDS011;56610;48.872;2.400;2023-05-19T13:51:50;4.57;;;2.30;;
69417;SDS011;56610;48.872;2.400;2023-05-19T13:54:19;4.68;;;2.15;;
69417;SDS011;56610;48.872;2.400;2023-05-19T13:56:45;4.82;;;2.63;;
69417;SDS011;56610;48.872;2.400;2023-05-19T13:59:12;5.45;;;2.50;;
69417;SDS011;56610;48.872;2.400;2023-05-19T14:01:38;4.22;;;2.05;;
69417;SDS011;56610;48.872;2.400;2023-05-19T14:04:04;5.32;;;2.60;;
69417;SDS011;56610;48.872;2.400;2023-05-19T14:06:29;4.57;;;2.30;;
69417;SDS011;56610;48.872;2.400;2023-05-19T14:08:55;2.88;;;1.83;;
69417;SDS011;56610;48.872;2.400;2023-05-19T14:11:20;5.25;;;2.30;;
69417;SDS011;56610;48.872;2.400;2023-05-19T14:13:49;5.25;;;2.08;;
69417;SDS011;56610;48.872;2.400;2023-05-19T14:16:18;4.18;;;2.25;;
69417;SDS011;56610;48.872;2.400;2023-05-19T14:18:47;5.20;;;2.40;;
69417;SDS011;56610;48.872;2.400;2023-05-19T14:21:13;3.13;;;2.20;;
69417;SDS011;56610;48.872;2.400;2023-05-19T14:23:39;5.50;;;2.30;;
69417;SDS011;56610;48.872;2.400;2023-05-19T14:26:05;6.53;;;2.20;;
69417;SDS011;56610;48.872;2.400;2023-05-19T14:28:30;4.53;;;2.42;;
69417;SDS011;56610;48.872;2.400;2023-05-19T14:30:56;3.08;;;2.08;;
69417;SDS011;56610;48.872;2.400;2023-05-19T14:33:21;4.85;;;2.20;;
69417;SDS011;56610;48.872;2.400;2023-05-19T14:35:47;6.78;;;2.30;;
69417;SDS011;56610;48.872;2.400;2023-05-19T14:38:13;5.63;;;2.33;;
69417;SDS011;56610;48.872;2.400;2023-05-19T14:40:38;4.20;;;1.92;;
69417;SDS011;56610;48.872;2.400;2023-05-19T14:43:05;2.88;;;2.03;;
69417;SDS011;56610;48.872;2.400;2023-05-19T14:45:31;6.07;;;2.00;;
69417;SDS011;56610;48.872;2.400;2023-05-19T14:47:57;3.00;;;2.20;;
69417;SDS011;56610;48.872;2.400;2023-05-19T14:50:23;5.05;;;2.00;;
69417;SDS011;56610;48.872;2.400;2023-05-19T14:52:49;4.88;;;1.92;;
69417;SDS011;56610;48.872;2.400;2023-05-19T14:55:15;5.13;;;2.13;;
69417;SDS011;56610;48.872;2.400;2023-05-19T14:57:40;3.63;;;2.00;;
